Arbela, MO

9:35 AM CST on December 22, 2014 (GMT -0600)
KIADONNE3 | Change Station
CLOSE
Current Station
Personal Weather Station
Location: Donnellson, IA
Elevation: 700 ft
Nearby Weather Stations

Elev 700 ft 40.63 °N, 91.60 °W | Updated 4 seconds ago

Rain
Rain
36.7 °F
Feels Like 37 °F
N
2.7
Wind Variable Wind from ESE
Gusts 4.9 mph

Today
High -- | Low -- °F
--% Chance of Precip.
Yesterday
High -- | Low -- °F
Precip. -- in
7:28 AM 4:44 PM
New Moon, 0% visible
Pressure 29.69 in
Visibility 2.0 miles
Clouds Mostly Cloudy 900 ft
Overcast 1500 ft
Windchill 37 °F
Dew Point 34 °F
Humidity 92%
Rainfall 0.05 in
Snow Depth Not available.
UV 0 out of 12
Pollen .10 out of 12
Air Quality Not available.
Flu Activity Not available.
METAR KEOK 221515Z AUTO 12008KT 2SM -UP BKN009 OVC015 03/02 A2969 RMK AO2

More Conditions Fewer Conditions

Pressure 29.69 in
Visibility 2.0 miles
Clouds Mostly Cloudy 900 ft
Overcast 1500 ft
Windchill 37 °F
Dew Point 34 °F
Humidity 92%
Rainfall 0.05 in
Snow Depth Not available.
UV 0 out of 12
Pollen .10 out of 12
Air Quality Not available.
Flu Activity Not available.
METAR KEOK 221515Z AUTO 12008KT 2SM -UP BKN009 OVC015 03/02 A2969 RMK AO2

More Conditions Fewer Conditions

10-Day Weather Forecast

Almanac

Astronomy

Dec. 22, 2014 Rise Set
Actual Time
Civil Twilight
Nautical Twilight
Astronomical Twilight
Moon
Length of Visible Light
Length of Day
Tomorrow will be .
, % of the Moon is Illuminated

Today's Extremes

State Highs State Lows

Community

WunderPhotos

Upload Photos

1,779,619 photos uploaded!

WunderBlogs® & News

Nearby

Air Quality

  Air Quality AQ Index Pollutant
Not available.

Snow Depth

Station Depth Elevation

Earthquake Activity

City Distance Mag. Time & Date
Minimum magnitude displayed is 2.5.

Coastal Water Temperatures

Place Temperature

Nearby Weather Stations